createdAt,value
2017-04-25T00:00:42.361Z,985.56
2017-04-25T00:01:42.391Z,985.55
2017-04-25T00:02:42.415Z,985.55
2017-04-25T00:03:42.443Z,985.59
2017-04-25T00:04:42.472Z,985.56
2017-04-25T00:05:42.498Z,985.54
2017-04-25T00:06:42.521Z,985.5
2017-04-25T00:07:42.556Z,985.51
2017-04-25T00:08:42.579Z,985.48
2017-04-25T00:09:42.608Z,985.48
2017-04-25T00:10:42.631Z,985.5
2017-04-25T00:11:42.661Z,985.51
2017-04-25T00:12:42.937Z,985.48
2017-04-25T00:13:42.714Z,985.46
2017-04-25T00:14:42.743Z,985.44
2017-04-25T00:15:42.769Z,985.45
2017-04-25T00:16:42.796Z,985.42
2017-04-25T00:17:43.078Z,985.39
2017-04-25T00:18:42.852Z,985.38
2017-04-25T00:19:42.877Z,985.4
2017-04-25T00:20:42.904Z,985.39
2017-04-25T00:21:42.933Z,985.39
2017-04-25T00:22:42.962Z,985.39
2017-04-25T00:23:42.982Z,985.38
2017-04-25T00:24:43.015Z,985.4
2017-04-25T00:25:43.040Z,985.36
2017-04-25T00:26:43.069Z,985.39
2017-04-25T00:27:43.093Z,985.36
2017-04-25T00:28:43.123Z,985.36
2017-04-25T00:29:43.150Z,985.34
2017-04-25T00:30:43.176Z,985.34
2017-04-25T00:31:43.201Z,985.33
2017-04-25T00:32:43.234Z,985.27
2017-04-25T00:33:43.258Z,985.36
2017-04-25T00:34:43.287Z,985.29
2017-04-25T00:35:43.313Z,985.3
2017-04-25T00:36:43.341Z,985.31
2017-04-25T00:37:43.365Z,985.33
2017-04-25T00:38:43.393Z,985.31
2017-04-25T00:39:43.423Z,985.33
2017-04-25T00:40:43.447Z,985.32
2017-04-25T00:41:43.475Z,985.3
2017-04-25T00:42:43.497Z,985.3
2017-04-25T00:43:43.534Z,985.31
2017-04-25T00:44:43.557Z,985.33
2017-04-25T00:45:43.582Z,985.33
2017-04-25T00:47:43.635Z,985.31
2017-04-25T00:48:43.661Z,985.32
2017-04-25T00:49:43.694Z,985.32
2017-04-25T00:50:43.719Z,985.3
2017-04-25T00:51:43.744Z,985.3
2017-04-25T00:52:43.773Z,985.32
2017-04-25T00:53:43.802Z,985.33
2017-04-25T00:54:43.827Z,985.35
2017-04-25T00:55:43.855Z,985.37
2017-04-25T00:56:43.880Z,985.38
2017-04-25T00:57:43.908Z,985.36
2017-04-25T00:58:43.936Z,985.33
2017-04-25T00:59:43.962Z,985.33
2017-04-25T01:00:43.992Z,985.34
2017-04-25T01:01:44.015Z,985.29
2017-04-25T01:02:44.044Z,985.28
2017-04-25T01:03:44.069Z,985.3
2017-04-25T01:04:44.093Z,985.25
2017-04-25T01:05:44.127Z,985.25
2017-04-25T01:06:44.153Z,985.29
2017-04-25T01:07:44.175Z,985.26
2017-04-25T01:08:44.200Z,985.23
2017-04-25T01:09:44.236Z,985.26
2017-04-25T01:10:44.258Z,985.25
2017-04-25T01:11:44.286Z,985.22
2017-04-25T01:12:44.314Z,985.19
2017-04-25T01:13:44.337Z,985.25
2017-04-25T01:14:44.370Z,985.19
2017-04-25T01:15:44.394Z,985.19
2017-04-25T01:16:44.423Z,985.18
2017-04-25T01:17:44.447Z,985.19
2017-04-25T01:18:44.475Z,985.22
2017-04-25T01:19:44.504Z,985.2
2017-04-25T01:20:44.530Z,985.23
2017-04-25T01:21:44.554Z,985.22
2017-04-25T01:22:44.580Z,985.19
2017-04-25T01:23:44.612Z,985.2
2017-04-25T01:24:44.673Z,985.22
2017-04-25T01:25:44.665Z,985.21
2017-04-25T01:26:44.690Z,985.17
2017-04-25T01:27:44.718Z,985.19
2017-04-25T01:28:44.744Z,985.22
2017-04-25T01:29:44.773Z,985.2
2017-04-25T01:30:44.797Z,985.17
2017-04-25T01:31:44.826Z,985.15
2017-04-25T01:32:44.850Z,985.15
2017-04-25T01:33:44.880Z,985.15
2017-04-25T01:34:44.904Z,985.16
2017-04-25T01:35:44.932Z,985.09
2017-04-25T01:36:44.961Z,985.12
2017-04-25T01:37:44.985Z,985.1
2017-04-25T01:38:45.016Z,985.03
2017-04-25T01:39:45.037Z,985.06
2017-04-25T01:40:45.068Z,985.04
2017-04-25T01:41:45.093Z,985
2017-04-25T01:42:45.121Z,985
2017-04-25T01:43:45.146Z,985.01
2017-04-25T01:44:45.176Z,984.99
2017-04-25T01:45:45.201Z,984.99
2017-04-25T01:46:45.230Z,984.99
2017-04-25T01:47:45.254Z,984.99
2017-04-25T01:48:45.284Z,984.95
2017-04-25T01:49:45.311Z,985.02
2017-04-25T01:50:45.337Z,985.02
2017-04-25T01:51:45.362Z,985.04
2017-04-25T01:52:45.390Z,985.02
2017-04-25T01:53:45.416Z,985.01
2017-04-25T01:54:45.444Z,985.05
2017-04-25T01:55:45.471Z,985.07
2017-04-25T01:56:45.497Z,985.09
2017-04-25T01:57:45.525Z,985.07
2017-04-25T01:58:45.551Z,985.06
2017-04-25T01:59:45.579Z,985.1
2017-04-25T02:00:45.603Z,985.08
2017-04-25T02:01:45.632Z,985.09
2017-04-25T02:02:45.657Z,985.05
2017-04-25T02:03:45.690Z,985.03
2017-04-25T02:04:45.715Z,985.06
2017-04-25T02:05:45.737Z,985
2017-04-25T02:06:45.764Z,985.02
2017-04-25T02:07:45.792Z,985.05
2017-04-25T02:08:45.821Z,985.02
2017-04-25T02:09:45.845Z,985.01
2017-04-25T02:10:45.870Z,985.02
2017-04-25T02:11:45.899Z,984.99
2017-04-25T02:12:45.924Z,985
2017-04-25T02:13:45.956Z,984.96
2017-04-25T02:14:45.980Z,984.97
2017-04-25T02:15:46.006Z,984.99
2017-04-25T02:16:46.032Z,984.97
2017-04-25T02:17:46.061Z,984.95
2017-04-25T02:18:46.089Z,984.97
2017-04-25T02:19:46.113Z,984.97
2017-04-25T02:20:46.141Z,984.92
2017-04-25T02:21:46.163Z,984.92
2017-04-25T02:22:46.196Z,984.92
2017-04-25T02:23:46.221Z,984.96
2017-04-25T02:24:46.249Z,984.93
2017-04-25T02:25:46.273Z,984.92
2017-04-25T02:26:46.299Z,984.92
2017-04-25T02:27:46.330Z,984.92
2017-04-25T02:28:46.608Z,984.89
2017-04-25T02:29:46.382Z,984.87
2017-04-25T02:30:46.409Z,984.89
2017-04-25T02:31:46.431Z,984.92
2017-04-25T02:32:46.464Z,984.92
2017-04-25T02:33:46.739Z,984.92
2017-04-25T02:34:46.514Z,984.92
2017-04-25T02:35:46.543Z,984.88
2017-04-25T02:36:46.570Z,984.86
2017-04-25T02:37:46.595Z,984.86
2017-04-25T02:38:46.870Z,984.87
2017-04-25T02:39:46.649Z,984.85
2017-04-25T02:40:46.678Z,984.89
2017-04-25T02:41:46.703Z,984.88
2017-04-25T02:42:46.723Z,984.83
2017-04-25T02:43:47.008Z,984.82
2017-04-25T02:44:46.781Z,984.84
2017-04-25T02:45:46.810Z,984.84
2017-04-25T02:46:46.834Z,984.81
2017-04-25T02:47:46.859Z,984.84
2017-04-25T02:48:47.139Z,984.85
2017-04-25T02:49:46.917Z,984.84
2017-04-25T02:50:46.945Z,984.87
2017-04-25T02:51:46.967Z,984.9
2017-04-25T02:52:46.990Z,984.94
2017-04-25T02:53:47.024Z,984.91
2017-04-25T02:54:47.048Z,984.91
2017-04-25T02:55:47.077Z,984.94
2017-04-25T02:56:47.094Z,984.9
2017-04-25T02:57:47.130Z,984.88
2017-04-25T02:58:47.156Z,984.9
2017-04-25T02:59:47.184Z,984.85
2017-04-25T03:00:47.203Z,984.87
2017-04-25T03:01:47.238Z,984.89
2017-04-25T03:02:47.262Z,984.87
2017-04-25T03:03:47.291Z,984.85
2017-04-25T03:04:47.311Z,984.85
2017-04-25T03:05:47.341Z,984.82
2017-04-25T03:06:47.369Z,984.83
2017-04-25T03:07:47.393Z,984.82
2017-04-25T03:08:47.421Z,984.79
2017-04-25T03:09:47.448Z,984.78
2017-04-25T03:10:47.476Z,984.78
2017-04-25T03:11:47.500Z,984.77
2017-04-25T03:12:47.528Z,984.74
2017-04-25T03:13:47.550Z,984.76
2017-04-25T03:14:47.583Z,984.78
2017-04-25T03:15:47.608Z,984.76
2017-04-25T03:16:47.637Z,984.76
2017-04-25T03:17:47.662Z,984.74
2017-04-25T03:18:47.687Z,984.79
2017-04-25T03:19:47.715Z,984.77
2017-04-25T03:20:47.744Z,984.77
2017-04-25T03:21:47.765Z,984.74
2017-04-25T03:22:47.794Z,984.7
2017-04-25T03:23:47.822Z,984.75
2017-04-25T03:24:47.844Z,984.71
2017-04-25T03:25:47.875Z,984.72
2017-04-25T03:26:47.901Z,984.71
2017-04-25T03:27:47.929Z,984.69
2017-04-25T03:28:47.955Z,984.71
2017-04-25T03:29:47.978Z,984.69
2017-04-25T03:30:48.006Z,984.65
2017-04-25T03:31:48.036Z,984.68
2017-04-25T03:32:48.062Z,984.72
2017-04-25T03:33:48.090Z,984.72
2017-04-25T03:34:48.114Z,984.71
2017-04-25T03:35:48.143Z,984.77
2017-04-25T03:36:48.168Z,984.75
2017-04-25T03:37:48.192Z,984.77
2017-04-25T03:38:48.222Z,984.74
2017-04-25T03:39:48.249Z,984.8
2017-04-25T03:40:48.276Z,984.74
2017-04-25T03:41:48.304Z,984.7
2017-04-25T03:42:48.329Z,984.76
2017-04-25T03:43:48.357Z,984.7
2017-04-25T03:44:48.382Z,984.75
2017-04-25T03:45:48.409Z,984.72
2017-04-25T03:46:48.435Z,984.77
2017-04-25T03:47:48.459Z,984.73
2017-04-25T03:48:48.490Z,984.8
2017-04-25T03:49:48.513Z,984.86
2017-04-25T03:50:48.537Z,984.84
2017-04-25T03:51:48.566Z,984.83
2017-04-25T03:52:48.595Z,984.85
2017-04-25T03:53:48.620Z,984.85
2017-04-25T03:54:48.648Z,984.89
2017-04-25T03:55:48.674Z,984.85
2017-04-25T03:56:48.704Z,984.83
2017-04-25T03:57:48.727Z,984.87
2017-04-25T03:58:48.755Z,984.87
2017-04-25T03:59:48.780Z,984.88
2017-04-25T04:00:48.809Z,984.86
2017-04-25T04:01:48.835Z,984.89
2017-04-25T04:02:48.859Z,984.93
2017-04-25T04:03:48.889Z,984.92
2017-04-25T04:04:48.917Z,984.9
2017-04-25T04:05:48.942Z,984.9
2017-04-25T04:06:48.962Z,984.88
2017-04-25T04:07:48.996Z,984.9
2017-04-25T04:08:49.019Z,984.9
2017-04-25T04:09:49.048Z,984.93
2017-04-25T04:10:49.074Z,984.95
2017-04-25T04:11:49.098Z,984.9
2017-04-25T04:12:49.128Z,984.94
2017-04-25T04:13:49.156Z,984.94
2017-04-25T04:14:49.179Z,984.95
2017-04-25T04:15:49.210Z,984.97
2017-04-25T04:16:49.230Z,984.92
2017-04-25T04:17:49.263Z,984.9
2017-04-25T04:18:49.292Z,984.91
2017-04-25T04:19:49.316Z,984.98
2017-04-25T04:20:49.340Z,985
2017-04-25T04:21:49.361Z,984.95
2017-04-25T04:22:49.394Z,984.98
2017-04-25T04:23:49.423Z,984.96
2017-04-25T04:24:49.449Z,984.95
2017-04-25T04:25:49.471Z,984.93
2017-04-25T04:26:49.501Z,984.96
2017-04-25T04:27:49.524Z,984.98
2017-04-25T04:28:49.554Z,984.99
2017-04-25T04:29:49.579Z,985.02
2017-04-25T04:30:49.608Z,985.05
2017-04-25T04:31:49.633Z,985.03
2017-04-25T04:32:49.658Z,985.01
2017-04-25T04:33:49.686Z,985.01
2017-04-25T04:34:49.714Z,984.98
2017-04-25T04:35:49.739Z,984.97
2017-04-25T04:36:49.764Z,985
2017-04-25T04:37:49.788Z,985
2017-04-25T04:38:49.823Z,985.01
2017-04-25T04:39:49.846Z,985.01
2017-04-25T04:40:49.872Z,985.04
2017-04-25T04:41:49.901Z,985.06
2017-04-25T04:42:49.925Z,985.08
2017-04-25T04:43:49.954Z,985.1
2017-04-25T04:44:49.979Z,985.1
2017-04-25T04:45:50.007Z,985.09
2017-04-25T04:46:50.032Z,985.07
2017-04-25T04:47:50.062Z,985.06
2017-04-25T04:48:50.080Z,985.04
2017-04-25T04:49:50.114Z,985.05
2017-04-25T04:50:50.140Z,985.02
2017-04-25T04:51:50.163Z,985.02
2017-04-25T04:52:50.192Z,985.03
2017-04-25T04:53:50.217Z,985
2017-04-25T04:54:50.247Z,985.07
2017-04-25T04:55:50.268Z,985.05
2017-04-25T04:56:50.299Z,985.05
2017-04-25T04:57:50.322Z,985.07
2017-04-25T04:58:50.349Z,985.02
2017-04-25T04:59:50.377Z,985.01
2017-04-25T05:00:50.406Z,985.06
2017-04-25T05:01:50.431Z,985.01
2017-04-25T05:02:50.461Z,985.03
2017-04-25T05:03:50.483Z,985.04
2017-04-25T05:04:50.509Z,985.04
2017-04-25T05:05:50.538Z,985.03
2017-04-25T05:06:50.567Z,985.07
2017-04-25T05:07:50.592Z,985.07
2017-04-25T05:08:50.616Z,985.09
2017-04-25T05:09:50.640Z,985.1
2017-04-25T05:10:50.670Z,985.08
2017-04-25T05:11:50.699Z,985.08
2017-04-25T05:12:50.723Z,985.11
2017-04-25T05:13:50.752Z,985.09
2017-04-25T05:14:50.776Z,985.1
2017-04-25T05:15:50.805Z,985.13
2017-04-25T05:16:50.830Z,985.12
2017-04-25T05:17:50.859Z,985.12
2017-04-25T05:18:50.880Z,985.13
2017-04-25T05:19:50.909Z,985.09
2017-04-25T05:20:50.937Z,985.1
2017-04-25T05:21:50.963Z,985.14
2017-04-25T05:22:50.990Z,985.12
2017-04-25T05:23:51.019Z,985.11
2017-04-25T05:24:51.045Z,985.16
2017-04-25T05:25:51.072Z,985.12
2017-04-25T05:26:51.098Z,985.13
2017-04-25T05:27:51.127Z,985.16
2017-04-25T05:28:51.150Z,985.16
2017-04-25T05:29:51.432Z,985.16
2017-04-25T05:30:51.200Z,985.22
2017-04-25T05:31:51.236Z,985.24
2017-04-25T05:32:51.260Z,985.23
2017-04-25T05:33:51.284Z,985.26
2017-04-25T05:34:51.564Z,985.24
2017-04-25T05:35:51.333Z,985.27
2017-04-25T05:36:51.366Z,985.24
2017-04-25T05:37:51.385Z,985.22
2017-04-25T05:38:51.420Z,985.27
2017-04-25T05:39:51.694Z,985.22
2017-04-25T05:40:51.468Z,985.23
2017-04-25T05:41:51.497Z,985.21
2017-04-25T05:42:51.526Z,985.15
2017-04-25T05:43:51.552Z,985.2
2017-04-25T05:44:51.830Z,985.12
2017-04-25T05:45:51.603Z,985.17
2017-04-25T05:46:51.633Z,985.17
2017-04-25T05:47:51.657Z,985.22
2017-04-25T05:48:51.685Z,985.26
2017-04-25T05:49:51.962Z,985.24
2017-04-25T05:50:51.739Z,985.25
2017-04-25T05:51:51.764Z,985.28
2017-04-25T05:52:51.790Z,985.31
2017-04-25T05:53:51.818Z,985.29
2017-04-25T05:54:52.095Z,985.3
2017-04-25T05:55:51.871Z,985.27
2017-04-25T05:56:51.896Z,985.25
2017-04-25T05:57:51.925Z,985.28
2017-04-25T05:58:51.953Z,985.3
2017-04-25T05:59:52.224Z,985.38
2017-04-25T06:00:52.001Z,985.32
2017-04-25T06:01:52.027Z,985.31
2017-04-25T06:02:52.058Z,985.34
2017-04-25T06:03:52.086Z,985.33
2017-04-25T06:04:52.110Z,985.28
2017-04-25T06:05:52.139Z,985.27
2017-04-25T06:06:52.158Z,985.33
2017-04-25T06:07:52.202Z,985.3
2017-04-25T06:08:52.217Z,985.29
2017-04-25T06:09:52.247Z,985.31
2017-04-25T06:10:52.268Z,985.29
2017-04-25T06:11:52.295Z,985.26
2017-04-25T06:12:52.316Z,985.28
2017-04-25T06:13:52.377Z,985.25
2017-04-25T06:14:52.375Z,985.27
2017-04-25T06:15:52.401Z,985.29
2017-04-25T06:16:52.427Z,985.27
2017-04-25T06:17:52.490Z,985.32
2017-04-25T06:18:52.480Z,985.32
2017-04-25T06:19:52.508Z,985.35
2017-04-25T06:20:52.537Z,985.32
2017-04-25T06:21:52.566Z,985.38
2017-04-25T06:22:52.587Z,985.37
2017-04-25T06:23:52.616Z,985.38
2017-04-25T06:24:52.641Z,985.4
2017-04-25T06:25:52.666Z,985.41
2017-04-25T06:26:52.692Z,985.38
2017-04-25T06:27:52.718Z,985.42
2017-04-25T06:28:52.747Z,985.41
2017-04-25T06:29:52.777Z,985.41
2017-04-25T06:30:52.802Z,985.39
2017-04-25T06:31:52.831Z,985.41
2017-04-25T06:32:52.855Z,985.38
2017-04-25T06:33:52.884Z,985.38
2017-04-25T06:34:52.908Z,985.4
2017-04-25T06:35:52.937Z,985.4
2017-04-25T06:36:52.962Z,985.41
2017-04-25T06:37:52.990Z,985.41
2017-04-25T06:38:53.012Z,985.37
2017-04-25T06:39:53.045Z,985.4
2017-04-25T06:40:53.069Z,985.41
2017-04-25T06:41:53.097Z,985.42
2017-04-25T06:42:53.118Z,985.4
2017-04-25T06:43:53.150Z,985.44
2017-04-25T06:44:53.176Z,985.4
2017-04-25T06:45:53.204Z,985.38
2017-04-25T06:46:53.230Z,985.41
2017-04-25T06:47:53.257Z,985.45
2017-04-25T06:48:53.283Z,985.4
2017-04-25T06:49:53.312Z,985.43
2017-04-25T06:50:53.335Z,985.44
2017-04-25T06:51:53.364Z,985.42
2017-04-25T06:52:53.393Z,985.49
2017-04-25T06:53:53.414Z,985.48
2017-04-25T06:54:53.447Z,985.46
2017-04-25T06:55:53.474Z,985.44
2017-04-25T06:56:53.501Z,985.47
2017-04-25T06:57:53.525Z,985.47
2017-04-25T06:58:53.554Z,985.46
2017-04-25T06:59:53.580Z,985.48
2017-04-25T07:00:53.608Z,985.5
2017-04-25T07:01:53.632Z,985.53
2017-04-25T07:02:53.657Z,985.5
2017-04-25T07:03:53.687Z,985.54
2017-04-25T07:04:53.710Z,985.54
2017-04-25T07:05:53.739Z,985.54
2017-04-25T07:06:53.765Z,985.52
2017-04-25T07:07:53.793Z,985.44
2017-04-25T07:08:53.822Z,985.46
2017-04-25T07:09:53.842Z,985.49
2017-04-25T07:10:53.875Z,985.49
2017-04-25T07:11:53.899Z,985.45
2017-04-25T07:12:53.927Z,985.48
2017-04-25T07:13:53.955Z,985.46
2017-04-25T07:14:53.980Z,985.46
2017-04-25T07:15:54.007Z,985.47
2017-04-25T07:16:54.033Z,985.48
2017-04-25T07:17:54.060Z,985.49
2017-04-25T07:18:54.088Z,985.51
2017-04-25T07:19:54.114Z,985.53
2017-04-25T07:20:54.142Z,985.51
2017-04-25T07:21:54.167Z,985.48
2017-04-25T07:22:54.196Z,985.55
2017-04-25T07:23:54.221Z,985.51
2017-04-25T07:24:54.253Z,985.52
2017-04-25T07:25:54.278Z,985.58
2017-04-25T07:26:54.305Z,985.54
2017-04-25T07:27:54.333Z,985.58
2017-04-25T07:28:54.356Z,985.54
2017-04-25T07:29:54.385Z,985.68
2017-04-25T07:30:54.663Z,985.61
2017-04-25T07:31:54.439Z,985.66
2017-04-25T07:32:54.462Z,985.61
2017-04-25T07:33:54.492Z,985.61
2017-04-25T07:34:54.520Z,985.69
2017-04-25T07:35:54.797Z,985.62
2017-04-25T07:36:54.570Z,985.62
2017-04-25T07:37:54.599Z,985.64
2017-04-25T07:38:54.624Z,985.64
2017-04-25T07:39:54.652Z,985.65
2017-04-25T07:40:54.927Z,985.64
2017-04-25T07:41:54.705Z,985.62
2017-04-25T07:42:54.731Z,985.67
2017-04-25T07:43:54.759Z,985.68
2017-04-25T07:44:54.785Z,985.78
2017-04-25T07:45:55.064Z,985.73
2017-04-25T07:46:54.838Z,985.76
2017-04-25T07:47:54.883Z,985.78
2017-04-25T07:48:54.891Z,985.72
2017-04-25T07:49:54.920Z,985.78
2017-04-25T07:50:55.196Z,985.79
2017-04-25T07:51:54.969Z,985.81
2017-04-25T07:52:54.999Z,985.79
2017-04-25T07:53:55.027Z,985.79
2017-04-25T07:54:55.053Z,985.76
2017-04-25T07:55:55.079Z,985.81
2017-04-25T07:56:55.101Z,985.8
2017-04-25T07:57:55.135Z,985.82
2017-04-25T07:58:55.159Z,985.82
2017-04-25T07:59:55.180Z,985.88
2017-04-25T08:00:55.213Z,985.92
2017-04-25T08:01:55.237Z,985.92
2017-04-25T08:02:55.265Z,985.98
2017-04-25T08:03:55.292Z,986
2017-04-25T08:04:55.321Z,986.01
2017-04-25T08:05:55.345Z,985.99
2017-04-25T08:06:55.373Z,986.07
2017-04-25T08:07:55.397Z,986.07
2017-04-25T08:08:55.425Z,986.15
2017-04-25T08:09:55.464Z,986.13
2017-04-25T08:10:55.479Z,986.13
2017-04-25T08:11:55.504Z,986.17
2017-04-25T08:12:55.533Z,986.19
2017-04-25T08:13:55.558Z,986.19
2017-04-25T08:14:55.579Z,986.19
2017-04-25T08:15:55.611Z,986.18
2017-04-25T08:16:55.643Z,986.22
2017-04-25T08:17:55.661Z,986.19
2017-04-25T08:18:55.690Z,986.26
2017-04-25T08:19:55.718Z,986.29
2017-04-25T08:20:55.743Z,986.34
2017-04-25T08:21:55.776Z,986.36
2017-04-25T08:22:55.801Z,986.37
2017-04-25T08:23:55.825Z,986.34
2017-04-25T08:24:55.848Z,986.36
2017-04-25T08:25:55.875Z,986.39
2017-04-25T08:26:55.904Z,986.43
2017-04-25T08:27:55.933Z,986.46
2017-04-25T08:28:55.958Z,986.49
2017-04-25T08:29:55.987Z,986.45
2017-04-25T08:30:56.010Z,986.49
2017-04-25T08:31:56.039Z,986.54
2017-04-25T08:32:56.065Z,986.53
2017-04-25T08:33:56.089Z,986.56
2017-04-25T08:34:56.118Z,986.63
2017-04-25T08:35:56.142Z,986.73
2017-04-25T08:36:56.171Z,986.74
2017-04-25T08:37:56.195Z,986.72
2017-04-25T08:38:56.221Z,986.76
2017-04-25T08:39:56.249Z,986.79
2017-04-25T08:40:56.278Z,986.74
2017-04-25T08:41:56.304Z,986.78
2017-04-25T08:42:56.332Z,986.79
2017-04-25T08:43:56.358Z,986.83
2017-04-25T08:44:56.378Z,986.9
2017-04-25T08:45:56.409Z,986.89
2017-04-25T08:46:56.434Z,986.9
2017-04-25T08:47:56.462Z,986.88
2017-04-25T08:48:56.488Z,986.91
2017-04-25T08:49:56.517Z,986.94
2017-04-25T08:50:56.541Z,986.94
2017-04-25T08:51:56.570Z,987
2017-04-25T08:52:56.594Z,986.98
2017-04-25T08:53:56.623Z,986.93
2017-04-25T08:54:56.648Z,986.93
2017-04-25T08:55:56.673Z,986.94
2017-04-25T08:56:56.702Z,986.96
2017-04-25T08:57:56.727Z,987.02
2017-04-25T08:58:56.754Z,986.96
2017-04-25T08:59:56.779Z,987
2017-04-25T09:00:56.804Z,986.96
2017-04-25T09:01:57.086Z,987.01
2017-04-25T09:02:56.858Z,987.09
2017-04-25T09:03:56.885Z,987.08
2017-04-25T09:04:56.909Z,987.08
2017-04-25T09:05:56.941Z,987.09
2017-04-25T09:06:57.218Z,987.14
2017-04-25T09:07:56.993Z,987.16
2017-04-25T09:08:57.018Z,987.27
2017-04-25T09:09:57.049Z,987.19
2017-04-25T09:10:57.068Z,987.28
2017-04-25T09:11:57.100Z,987.25
2017-04-25T09:12:57.126Z,987.22
2017-04-25T09:13:57.150Z,987.25
2017-04-25T09:14:57.179Z,987.27
2017-04-25T09:15:57.199Z,987.24
2017-04-25T09:16:57.233Z,987.28
2017-04-25T09:17:57.253Z,987.27
2017-04-25T09:18:57.286Z,987.27
2017-04-25T09:19:57.312Z,987.31
2017-04-25T09:20:57.336Z,987.3
2017-04-25T09:21:57.365Z,987.34
2017-04-25T09:22:57.388Z,987.39
2017-04-25T09:23:57.417Z,987.36
2017-04-25T09:24:57.444Z,987.35
2017-04-25T09:25:57.471Z,987.38
2017-04-25T09:26:57.497Z,987.37
2017-04-25T09:27:57.521Z,987.34
2017-04-25T09:28:57.550Z,987.37
2017-04-25T09:29:57.574Z,987.39
2017-04-25T09:30:57.603Z,987.39
2017-04-25T09:31:57.628Z,987.42
2017-04-25T09:32:57.657Z,987.44
2017-04-25T09:33:57.681Z,987.5
2017-04-25T09:34:57.709Z,987.47
2017-04-25T09:35:57.734Z,987.51
2017-04-25T09:36:57.760Z,987.47
2017-04-25T09:37:57.789Z,987.55
2017-04-25T09:38:57.811Z,987.47
2017-04-25T09:39:57.845Z,987.51
2017-04-25T09:40:57.866Z,987.45
2017-04-25T09:41:57.895Z,987.49
2017-04-25T09:42:57.920Z,987.47
2017-04-25T09:43:57.949Z,987.49
2017-04-25T09:44:57.974Z,987.55
2017-04-25T09:45:57.997Z,987.55
2017-04-25T09:46:58.028Z,987.55
2017-04-25T09:47:58.052Z,987.55
2017-04-25T09:48:58.080Z,987.6
2017-04-25T09:49:58.104Z,987.56
2017-04-25T09:50:58.136Z,987.6
2017-04-25T09:51:58.159Z,987.61
2017-04-25T09:52:58.187Z,987.66
2017-04-25T09:53:58.211Z,987.62
2017-04-25T09:54:58.235Z,987.59
2017-04-25T09:55:58.264Z,987.58
2017-04-25T09:56:58.299Z,987.59
2017-04-25T09:57:58.318Z,987.59
2017-04-25T09:58:58.346Z,987.57
2017-04-25T09:59:58.373Z,987.59
2017-04-25T10:00:58.398Z,987.6
2017-04-25T10:01:58.426Z,987.58
2017-04-25T10:02:58.451Z,987.54
2017-04-25T10:03:58.480Z,987.53
2017-04-25T10:04:58.505Z,987.59
2017-04-25T10:05:58.534Z,987.58
2017-04-25T10:06:58.557Z,987.59
2017-04-25T10:07:58.584Z,987.56
2017-04-25T10:08:58.607Z,987.52
2017-04-25T10:09:58.635Z,987.49
2017-04-25T10:10:58.665Z,987.5
2017-04-25T10:11:58.688Z,987.51
2017-04-25T10:12:58.715Z,987.47
2017-04-25T10:13:58.742Z,987.52
2017-04-25T10:14:58.771Z,987.48
2017-04-25T10:15:58.796Z,987.53
2017-04-25T10:16:58.821Z,987.52
2017-04-25T10:17:58.849Z,987.49
2017-04-25T10:18:58.876Z,987.55
2017-04-25T10:19:58.905Z,987.47
2017-04-25T10:20:58.928Z,987.51
2017-04-25T10:21:58.957Z,987.53
2017-04-25T10:22:58.981Z,987.51
2017-04-25T10:23:59.006Z,987.48
2017-04-25T10:24:59.030Z,987.54
2017-04-25T10:25:59.064Z,987.49
2017-04-25T10:26:59.087Z,987.5
2017-04-25T10:27:59.114Z,987.48
2017-04-25T10:28:59.143Z,987.48
2017-04-25T10:29:59.164Z,987.51
2017-04-25T10:30:59.198Z,987.49
2017-04-25T10:31:59.221Z,987.5
2017-04-25T10:32:59.250Z,987.53
2017-04-25T10:33:59.274Z,987.48
2017-04-25T10:34:59.298Z,987.47
2017-04-25T10:35:59.326Z,987.46
2017-04-25T10:36:59.352Z,987.52
2017-04-25T10:37:59.381Z,987.48
2017-04-25T10:38:59.406Z,987.56
2017-04-25T10:39:59.432Z,987.54
2017-04-25T10:40:59.462Z,987.56
2017-04-25T10:41:59.483Z,987.52
2017-04-25T10:42:59.513Z,987.54
2017-04-25T10:43:59.537Z,987.55
2017-04-25T10:44:59.565Z,987.52
2017-04-25T10:45:59.591Z,987.53
2017-04-25T10:46:59.619Z,987.51
2017-04-25T10:47:59.644Z,987.51
2017-04-25T10:48:59.668Z,987.52
2017-04-25T10:49:59.696Z,987.53
2017-04-25T10:50:59.723Z,987.56
2017-04-25T10:51:59.751Z,987.57
2017-04-25T10:52:59.774Z,987.55
2017-04-25T10:53:59.804Z,987.54
2017-04-25T10:54:59.829Z,987.56
2017-04-25T10:55:59.858Z,987.55
2017-04-25T10:56:59.884Z,987.54
2017-04-25T10:58:00.211Z,987.6
2017-04-25T10:58:59.936Z,987.58
2017-04-25T10:59:59.961Z,987.62
2017-04-25T11:00:59.990Z,987.61
2017-04-25T11:02:00.011Z,987.62
2017-04-25T11:03:00.043Z,987.62
2017-04-25T11:04:00.073Z,987.7
2017-04-25T11:05:00.097Z,987.68
2017-04-25T11:06:00.121Z,987.73
2017-04-25T11:07:00.146Z,987.74
2017-04-25T11:08:00.175Z,987.81
2017-04-25T11:09:00.203Z,987.82
2017-04-25T11:10:00.228Z,987.87
2017-04-25T11:11:00.254Z,987.85
2017-04-25T11:12:00.283Z,987.83
2017-04-25T11:13:00.319Z,987.89
2017-04-25T11:14:00.335Z,987.91
2017-04-25T11:15:00.361Z,987.87
2017-04-25T11:16:00.388Z,987.91
2017-04-25T11:17:00.412Z,987.89
2017-04-25T11:18:00.438Z,987.9
2017-04-25T11:19:00.467Z,987.9
2017-04-25T11:20:00.488Z,987.92
2017-04-25T11:21:00.520Z,987.95
2017-04-25T11:22:00.545Z,987.95
2017-04-25T11:23:00.570Z,987.96
2017-04-25T11:24:00.599Z,987.94
2017-04-25T11:25:00.628Z,987.95
2017-04-25T11:26:00.653Z,987.99
2017-04-25T11:27:00.680Z,988.01
2017-04-25T11:28:00.704Z,988.02
2017-04-25T11:29:00.730Z,987.99
2017-04-25T11:30:00.758Z,987.99
2017-04-25T11:31:00.783Z,987.97
2017-04-25T11:32:00.813Z,988.02
2017-04-25T11:33:00.837Z,987.99
2017-04-25T11:34:00.866Z,988
2017-04-25T11:35:00.892Z,987.97
2017-04-25T11:36:00.921Z,988.01
2017-04-25T11:37:00.945Z,988
2017-04-25T11:38:00.973Z,987.98
2017-04-25T11:39:00.997Z,987.93
2017-04-25T11:40:01.023Z,987.93
2017-04-25T11:41:01.054Z,987.98
2017-04-25T11:42:01.080Z,987.96
2017-04-25T11:43:01.106Z,987.9
2017-04-25T11:44:01.125Z,987.91
2017-04-25T11:45:01.160Z,987.91
2017-04-25T11:46:01.183Z,987.92
2017-04-25T11:47:01.212Z,987.96
2017-04-25T11:48:01.231Z,987.94
2017-04-25T11:49:01.266Z,987.92
2017-04-25T11:50:01.302Z,987.91
2017-04-25T11:51:01.315Z,987.92
2017-04-25T11:52:01.344Z,987.93
2017-04-25T11:53:01.372Z,987.91
2017-04-25T11:54:01.397Z,987.88
2017-04-25T11:55:01.421Z,987.89
2017-04-25T11:56:01.451Z,987.89
2017-04-25T11:57:01.475Z,987.87
2017-04-25T11:58:01.502Z,987.86
2017-04-25T11:59:01.528Z,987.87
2017-04-25T12:00:01.558Z,987.94
2017-04-25T12:01:01.583Z,987.9
2017-04-25T12:02:01.610Z,987.92
2017-04-25T12:03:01.635Z,987.93
2017-04-25T12:04:01.916Z,987.95
2017-04-25T12:05:01.684Z,987.9
2017-04-25T12:06:01.713Z,987.92
2017-04-25T12:07:01.742Z,987.9
2017-04-25T12:08:01.768Z,987.96
2017-04-25T12:09:02.047Z,987.99
2017-04-25T12:10:01.822Z,987.96
2017-04-25T12:11:01.852Z,987.97
2017-04-25T12:12:01.874Z,987.97
2017-04-25T12:13:01.903Z,987.96
2017-04-25T12:14:02.180Z,987.95
2017-04-25T12:15:01.957Z,987.99
2017-04-25T12:16:01.980Z,987.96
2017-04-25T12:17:02.006Z,987.97
2017-04-25T12:18:02.037Z,987.97
2017-04-25T12:19:02.316Z,987.97
2017-04-25T12:20:02.088Z,987.96
2017-04-25T12:21:02.110Z,987.96
2017-04-25T12:22:02.142Z,987.98
2017-04-25T12:23:02.167Z,987.93
2017-04-25T12:24:02.195Z,987.99
2017-04-25T12:25:02.218Z,987.97
2017-04-25T12:26:02.244Z,987.98
2017-04-25T12:27:02.275Z,987.97
2017-04-25T12:28:02.298Z,987.96
2017-04-25T12:29:02.328Z,987.99
2017-04-25T12:30:02.356Z,987.93
2017-04-25T12:31:02.380Z,987.89
2017-04-25T12:32:02.407Z,987.93
2017-04-25T12:33:02.433Z,987.92